createdAt,value
2018-12-21T00:01:07.788Z,100629.45
2018-12-21T00:03:36.238Z,100632.82
2018-12-21T00:06:04.761Z,100628.78
2018-12-21T00:08:33.070Z,100619.52
2018-12-21T00:11:01.368Z,100620.88
2018-12-21T00:13:29.710Z,100617.80
2018-12-21T00:15:58.039Z,100616.20
2018-12-21T00:18:26.383Z,100608.34
2018-12-21T00:20:54.707Z,100608.34
2018-12-21T00:23:23.041Z,100599.08
2018-12-21T00:25:51.440Z,100592.63
2018-12-21T00:28:19.847Z,100596.70
2018-12-21T00:30:47.541Z,100592.87
2018-12-21T00:33:21.366Z,100586.75
2018-12-21T00:35:55.074Z,100582.99
2018-12-21T00:38:29.017Z,100583.88
2018-12-21T00:41:02.743Z,100580.84
2018-12-21T00:43:33.088Z,100579.47
2018-12-21T00:46:03.522Z,100579.83
2018-12-21T00:48:31.967Z,100578.62
2018-12-21T00:51:00.500Z,100563.42
2018-12-21T00:53:28.813Z,100563.01
2018-12-21T00:55:57.144Z,100556.20
2018-12-21T00:58:25.496Z,100551.58
2018-12-21T01:00:53.829Z,100545.52
2018-12-21T01:03:22.154Z,100545.09
2018-12-21T01:05:50.487Z,100547.19
2018-12-21T01:08:18.811Z,100543.19
2018-12-21T01:10:47.213Z,100547.56
2018-12-21T01:13:15.615Z,100544.54
2018-12-21T01:15:44.042Z,100545.36
2018-12-21T01:18:12.385Z,100546.83
2018-12-21T01:20:40.742Z,100540.18
2018-12-21T01:23:09.081Z,100537.15
2018-12-21T01:25:37.443Z,100537.69
2018-12-21T01:28:05.762Z,100534.67
2018-12-21T01:30:34.087Z,100529.48
2018-12-21T01:33:02.410Z,100529.42
2018-12-21T01:35:30.915Z,100522.51
2018-12-21T01:37:59.236Z,100522.59
2018-12-21T01:40:27.610Z,100519.11
2018-12-21T01:42:56.070Z,100521.64
2018-12-21T01:45:24.423Z,100521.54
2018-12-21T01:47:52.920Z,100516.45
2018-12-21T01:50:21.317Z,100512.96
2018-12-21T01:52:49.752Z,100504.31
2018-12-21T01:55:18.074Z,100506.73
2018-12-21T01:57:46.383Z,100501.22
2018-12-21T02:00:14.836Z,100498.64
2018-12-21T02:02:43.135Z,100482.53
2018-12-21T02:05:11.467Z,100481.48
2018-12-21T02:07:39.809Z,100475.48
2018-12-21T02:10:08.470Z,100465.23
2018-12-21T02:12:36.794Z,100465.91
2018-12-21T02:15:05.421Z,100460.89
2018-12-21T02:17:33.728Z,100453.89
2018-12-21T02:20:02.151Z,100449.56
2018-12-21T02:22:30.550Z,100458.16
2018-12-21T02:24:58.911Z,100440.87
2018-12-21T02:27:27.215Z,100436.97
2018-12-21T02:29:55.541Z,100429.69
2018-12-21T02:32:23.934Z,100423.27
2018-12-21T02:34:52.251Z,100428.55
2018-12-21T02:37:20.569Z,100414.47
2018-12-21T02:39:48.905Z,100408.46
2018-12-21T02:42:17.249Z,100403.05
2018-12-21T02:44:45.637Z,100394.42
2018-12-21T02:47:13.978Z,100386.22
2018-12-21T02:49:42.310Z,100379.87
2018-12-21T02:52:10.912Z,100374.78
2018-12-21T02:54:39.253Z,100369.13
2018-12-21T02:57:07.614Z,100360.86
2018-12-21T02:59:36.048Z,100360.13
2018-12-21T03:02:04.394Z,100349.80
2018-12-21T03:04:32.719Z,100355.81
2018-12-21T03:07:01.094Z,100345.83
2018-12-21T03:09:29.488Z,100344.91
2018-12-21T03:11:57.826Z,100344.78
2018-12-21T03:14:26.214Z,100335.94
2018-12-21T03:16:54.559Z,100335.13
2018-12-21T03:19:23.014Z,100326.59
2018-12-21T03:21:51.334Z,100316.60
2018-12-21T03:24:19.667Z,100320.62
2018-12-21T03:26:48.018Z,100305.06
2018-12-21T03:29:16.358Z,100296.00
2018-12-21T03:31:44.801Z,100294.30
2018-12-21T03:34:13.117Z,100279.14
2018-12-21T03:36:41.571Z,100277.54
2018-12-21T03:39:09.988Z,100280.09
2018-12-21T03:41:38.331Z,100277.45
2018-12-21T03:44:06.667Z,100267.71
2018-12-21T03:46:35.143Z,100269.52
2018-12-21T03:49:03.602Z,100263.90
2018-12-21T03:51:31.928Z,100263.43
2018-12-21T03:54:00.392Z,100256.59
2018-12-21T03:56:28.716Z,100241.34
2018-12-21T03:58:57.184Z,100236.05
2018-12-21T04:01:25.612Z,100228.91
2018-12-21T04:03:53.960Z,100217.67
2018-12-21T04:06:22.327Z,100215.08
2018-12-21T04:08:50.817Z,100206.40
2018-12-21T04:11:19.191Z,100206.47
2018-12-21T04:13:47.493Z,100187.97
2018-12-21T04:16:15.827Z,100181.85
2018-12-21T04:18:44.169Z,100180.16
2018-12-21T04:21:12.495Z,100176.17
2018-12-21T04:23:40.936Z,100157.58
2018-12-21T04:26:09.280Z,100152.39
2018-12-21T04:28:37.794Z,100148.84
2018-12-21T04:31:06.133Z,100140.28
2018-12-21T04:33:34.549Z,100136.39
2018-12-21T04:36:02.988Z,100129.36
2018-12-21T04:38:31.299Z,100123.64
2018-12-21T04:40:59.630Z,100117.55
2018-12-21T04:43:27.946Z,100114.36
2018-12-21T04:45:56.292Z,100113.23
2018-12-21T04:48:24.633Z,100107.98
2018-12-21T04:50:53.017Z,100106.56
2018-12-21T04:53:21.357Z,100106.48
2018-12-21T04:55:49.699Z,100109.97
2018-12-21T04:58:18.052Z,100094.81
2018-12-21T05:00:46.390Z,100087.44
2018-12-21T05:03:15.297Z,100090.68
2018-12-21T05:05:43.652Z,100089.34
2018-12-21T05:08:12.003Z,100086.27
2018-12-21T05:10:40.397Z,100073.33
2018-12-21T05:13:08.844Z,100066.39
2018-12-21T05:15:37.262Z,100056.94
2018-12-21T05:18:05.595Z,100046.49
2018-12-21T05:20:33.940Z,100043.95
2018-12-21T05:23:02.273Z,100036.14
2018-12-21T05:25:30.651Z,100024.10
2018-12-21T05:27:59.019Z,100015.52
2018-12-21T05:30:27.399Z,100007.67
2018-12-21T05:32:55.739Z,100007.75
2018-12-21T05:35:24.078Z,100001.67
2018-12-21T05:37:52.431Z,100000.84
2018-12-21T05:40:20.883Z,99986.96
2018-12-21T05:42:49.197Z,99981.91
2018-12-21T05:45:17.529Z,99974.84
2018-12-21T05:47:45.838Z,99976.22
2018-12-21T05:50:14.544Z,99963.16
2018-12-21T05:52:42.991Z,99946.45
2018-12-21T05:55:11.388Z,99945.51
2018-12-21T05:57:39.724Z,99931.23
2018-12-21T06:00:09.178Z,99923.48
2018-12-21T06:02:37.499Z,99920.45
2018-12-21T06:05:06.465Z,99914.48
2018-12-21T06:07:34.771Z,99905.36
2018-12-21T06:10:03.686Z,99910.06
2018-12-21T06:12:32.044Z,99905.94
2018-12-21T06:15:00.399Z,99899.79
2018-12-21T06:17:28.817Z,99903.70
2018-12-21T06:19:57.206Z,99898.23
2018-12-21T06:22:25.849Z,99896.94
2018-12-21T06:24:54.217Z,99894.42
2018-12-21T06:27:22.599Z,99891.73
2018-12-21T06:29:50.928Z,99886.98
2018-12-21T06:32:19.293Z,99879.19
2018-12-21T06:34:47.616Z,99872.72
2018-12-21T06:37:15.923Z,99871.45
2018-12-21T06:39:44.490Z,99867.72
2018-12-21T06:42:12.960Z,99853.00
2018-12-21T06:44:41.293Z,99847.29
2018-12-21T06:47:09.687Z,99845.69
2018-12-21T06:49:38.047Z,99842.23
2018-12-21T06:52:06.407Z,99834.47
2018-12-21T06:54:34.750Z,99821.98
2018-12-21T06:57:03.091Z,99817.23
2018-12-21T06:59:31.464Z,99810.41
2018-12-21T07:01:59.778Z,99808.63
2018-12-21T07:04:28.122Z,99806.41
2018-12-21T07:06:56.516Z,99802.58
2018-12-21T07:09:24.917Z,99797.79
2018-12-21T07:11:54.217Z,99802.58
2018-12-21T07:14:22.753Z,99798.30
2018-12-21T07:16:51.254Z,99791.82
2018-12-21T07:19:19.681Z,99786.66
2018-12-21T07:21:48.033Z,99787.48
2018-12-21T07:24:16.587Z,99780.58
2018-12-21T07:26:44.974Z,99784.51
2018-12-21T07:29:13.316Z,99772.89
2018-12-21T07:31:41.814Z,99768.12
2018-12-21T07:34:10.172Z,99759.05
2018-12-21T07:36:38.614Z,99757.33
2018-12-21T07:39:08.886Z,99748.71
2018-12-21T07:41:37.243Z,99745.23
2018-12-21T07:44:05.808Z,99756.05
2018-12-21T07:46:34.138Z,99733.63
2018-12-21T07:49:02.582Z,99731.84
2018-12-21T07:51:31.942Z,99723.66
2018-12-21T07:54:00.297Z,99712.89
2018-12-21T07:56:28.699Z,99710.78
2018-12-21T07:58:57.523Z,99706.44
2018-12-21T08:01:25.963Z,99688.32
2018-12-21T08:03:54.456Z,99688.75
2018-12-21T08:06:22.836Z,99679.25
2018-12-21T08:08:51.184Z,99664.16
2018-12-21T08:11:19.510Z,99660.72
2018-12-21T08:13:47.872Z,99647.30
2018-12-21T08:16:16.233Z,99636.48
2018-12-21T08:18:44.659Z,99621.81
2018-12-21T08:21:12.984Z,99623.98
2018-12-21T08:23:44.322Z,99611.00
2018-12-21T08:26:11.630Z,99585.95
2018-12-21T08:28:40.007Z,99573.87
2018-12-21T08:31:08.364Z,99561.80
2018-12-21T08:33:37.694Z,99575.61
2018-12-21T08:36:06.063Z,99570.03
2018-12-21T08:38:34.405Z,99586.00
2018-12-21T08:41:02.778Z,99573.02
2018-12-21T08:43:31.271Z,99576.53
2018-12-21T08:45:59.728Z,99567.89
2018-12-21T08:48:28.099Z,99562.72
2018-12-21T08:50:56.434Z,99551.50
2018-12-21T08:53:24.727Z,99550.20
2018-12-21T08:55:53.099Z,99554.09
2018-12-21T08:58:21.422Z,99540.68
2018-12-21T09:00:49.767Z,99528.16
2018-12-21T09:03:18.187Z,99527.72
2018-12-21T09:05:46.620Z,99526.44
2018-12-21T09:08:15.019Z,99523.42
2018-12-21T09:10:43.372Z,99515.20
2018-12-21T09:13:11.723Z,99513.48
2018-12-21T09:15:40.183Z,99513.05
2018-12-21T09:18:09.077Z,99502.27
2018-12-21T09:20:37.602Z,99501.40
2018-12-21T09:23:06.034Z,99503.12
2018-12-21T09:25:34.408Z,99502.24
2018-12-21T09:28:02.818Z,99502.69
2018-12-21T09:30:31.263Z,99503.13
2018-12-21T09:32:59.618Z,99488.43
2018-12-21T09:35:27.977Z,99497.48
2018-12-21T09:37:56.301Z,99479.77
2018-12-21T09:40:24.960Z,99483.66
2018-12-21T09:42:53.536Z,99471.98
2018-12-21T09:45:22.012Z,99474.11
2018-12-21T09:47:50.404Z,99475.37
2018-12-21T09:50:18.836Z,99458.95
2018-12-21T09:52:47.201Z,99458.92
2018-12-21T09:55:15.621Z,99446.80
2018-12-21T09:57:44.125Z,99444.28
2018-12-21T10:00:12.566Z,99450.30
2018-12-21T10:02:40.994Z,99450.30
2018-12-21T10:05:10.784Z,99446.38
2018-12-21T10:07:39.408Z,99441.22
2018-12-21T10:10:08.851Z,99441.25
2018-12-21T10:12:37.290Z,99440.35
2018-12-21T10:15:07.566Z,99443.38
2018-12-21T10:17:36.056Z,99437.37
2018-12-21T10:20:06.979Z,99432.97
2018-12-21T10:22:35.627Z,99431.20
2018-12-21T10:25:05.481Z,99433.00
2018-12-21T10:27:33.822Z,99428.17
2018-12-21T10:30:02.156Z,99431.64
2018-12-21T10:32:30.527Z,99425.59
2018-12-21T10:34:58.909Z,99432.49
2018-12-21T10:37:27.264Z,99426.86
2018-12-21T10:39:55.635Z,99428.04
2018-12-21T10:42:24.124Z,99422.81
2018-12-21T10:44:52.580Z,99419.56
2018-12-21T10:47:20.929Z,99424.07
2018-12-21T10:49:49.393Z,99402.86
2018-12-21T10:52:17.764Z,99412.86
2018-12-21T10:54:46.091Z,99417.38
2018-12-21T10:57:14.511Z,99411.33
2018-12-21T10:59:43.540Z,99410.02
2018-12-21T11:02:12.224Z,99406.80
2018-12-21T11:04:40.606Z,99416.61
2018-12-21T11:07:09.721Z,99408.05
2018-12-21T11:09:38.111Z,99387.25
2018-12-21T11:12:06.465Z,99386.53
2018-12-21T11:14:35.741Z,99407.01
2018-12-21T11:17:04.137Z,99408.81
2018-12-21T11:19:32.680Z,99401.02
2018-12-21T11:22:01.192Z,99413.80
2018-12-21T11:24:35.339Z,99394.86
2018-12-21T11:27:00.012Z,99401.33
2018-12-21T11:29:28.426Z,99408.81
2018-12-21T11:31:56.811Z,99370.45
2018-12-21T11:34:25.205Z,99407.09
2018-12-21T11:36:53.578Z,99414.23
2018-12-21T11:39:22.035Z,99415.45
2018-12-21T11:41:50.400Z,99413.16
2018-12-21T11:44:18.739Z,99415.38
2018-12-21T11:46:47.101Z,99409.98
2018-12-21T11:49:15.525Z,99403.49
2018-12-21T11:51:43.861Z,99416.07
2018-12-21T11:54:12.186Z,99405.47
2018-12-21T11:56:40.516Z,99421.06
2018-12-21T11:59:08.854Z,99416.23
2018-12-21T12:01:37.424Z,99418.84
2018-12-21T12:04:05.893Z,99427.48
2018-12-21T12:06:34.258Z,99428.32
2018-12-21T12:09:06.269Z,99419.23
2018-12-21T12:11:32.996Z,99436.44
2018-12-21T12:14:01.451Z,99427.77
2018-12-21T12:16:29.796Z,99439.05
2018-12-21T12:18:58.193Z,99437.87
2018-12-21T12:21:26.537Z,99432.98
2018-12-21T12:23:54.879Z,99432.53
2018-12-21T12:26:23.312Z,99466.59
2018-12-21T12:28:51.647Z,99446.66
2018-12-21T12:31:20.077Z,99444.59
2018-12-21T12:33:48.543Z,99437.78
2018-12-21T12:36:16.994Z,99440.03
2018-12-21T12:38:45.328Z,99436.64
2018-12-21T12:41:13.683Z,99429.88
2018-12-21T12:43:42.018Z,99426.29
2018-12-21T12:46:10.363Z,99434.33
2018-12-21T12:48:38.704Z,99443.88
2018-12-21T12:51:07.090Z,99436.16
2018-12-21T12:53:35.470Z,99439.30
2018-12-21T12:56:05.220Z,99447.29
2018-12-21T12:58:33.784Z,99443.53
2018-12-21T13:01:02.305Z,99436.68
2018-12-21T13:03:30.728Z,99443.92
2018-12-21T13:05:59.149Z,99450.59
2018-12-21T13:08:27.724Z,99471.38
2018-12-21T13:10:56.073Z,99456.09
2018-12-21T13:13:24.500Z,99456.27
2018-12-21T13:15:52.834Z,99460.48
2018-12-21T13:18:21.223Z,99455.20
2018-12-21T13:20:49.550Z,99456.02
2018-12-21T13:23:17.909Z,99462.96
2018-12-21T13:25:46.246Z,99467.86
2018-12-21T13:28:14.601Z,99467.02
2018-12-21T13:30:42.946Z,99470.09
2018-12-21T13:33:11.316Z,99464.27
2018-12-21T13:35:39.705Z,99473.45
2018-12-21T13:38:08.059Z,99468.29
2018-12-21T13:40:36.423Z,99486.16
2018-12-21T13:43:04.831Z,99483.37
2018-12-21T13:45:33.191Z,99489.47
2018-12-21T13:48:01.577Z,99490.12
2018-12-21T13:50:29.994Z,99486.44
2018-12-21T13:52:58.317Z,99491.56
2018-12-21T13:55:27.970Z,99478.16
2018-12-21T13:57:56.299Z,99472.28
2018-12-21T14:00:24.678Z,99499.82
2018-12-21T14:02:53.059Z,99505.14
2018-12-21T14:05:21.457Z,99504.45
2018-12-21T14:07:49.829Z,99508.45
2018-12-21T14:10:18.260Z,99526.88
2018-12-21T14:12:46.611Z,99517.53
2018-12-21T14:15:14.958Z,99532.67
2018-12-21T14:17:43.310Z,99527.38
2018-12-21T14:20:11.617Z,99536.78
2018-12-21T14:22:40.080Z,99544.05
2018-12-21T14:25:09.100Z,99552.58
2018-12-21T14:27:37.602Z,99537.67
2018-12-21T14:30:07.835Z,99547.64
2018-12-21T14:32:36.284Z,99544.96
2018-12-21T14:35:05.785Z,99541.77
2018-12-21T14:37:34.204Z,99555.78
2018-12-21T14:40:05.906Z,99552.63
2018-12-21T14:42:34.263Z,99555.77
2018-12-21T14:45:02.639Z,99568.45
2018-12-21T14:47:30.940Z,99549.38
2018-12-21T14:49:59.325Z,99555.77
2018-12-21T14:52:30.754Z,99574.70
2018-12-21T14:54:59.220Z,99563.78
2018-12-21T14:57:27.734Z,99572.23
2018-12-21T14:59:56.066Z,99573.16
2018-12-21T15:02:24.398Z,99581.17
2018-12-21T15:04:53.103Z,99588.09
2018-12-21T15:07:21.558Z,99587.92
2018-12-21T15:09:50.810Z,99594.48
2018-12-21T15:12:19.804Z,99603.82
2018-12-21T15:14:48.994Z,99623.92
2018-12-21T15:17:17.442Z,99623.53
2018-12-21T15:19:45.779Z,99631.88
2018-12-21T15:22:14.138Z,99627.20
2018-12-21T15:24:42.993Z,99627.37
2018-12-21T15:27:11.442Z,99635.70
2018-12-21T15:29:41.072Z,99649.77
2018-12-21T15:32:09.596Z,99660.01
2018-12-21T15:34:37.937Z,99678.48
2018-12-21T15:37:06.441Z,99667.15
2018-12-21T15:39:34.770Z,99660.62
2018-12-21T15:42:03.818Z,99664.57
2018-12-21T15:44:32.186Z,99677.09
2018-12-21T15:47:08.788Z,99690.55
2018-12-21T15:49:30.894Z,99676.56
2018-12-21T15:51:59.332Z,99694.80
2018-12-21T15:54:27.765Z,99690.67
2018-12-21T15:56:56.091Z,99684.15
2018-12-21T15:59:24.459Z,99702.86
2018-12-21T16:01:52.794Z,99732.76
2018-12-21T16:04:21.152Z,99719.19
2018-12-21T16:06:49.543Z,99732.06
2018-12-21T16:09:18.062Z,99749.37
2018-12-21T16:11:46.463Z,99763.78
2018-12-21T16:14:14.935Z,99751.43
2018-12-21T16:16:43.344Z,99766.09
2018-12-21T16:19:11.698Z,99764.92
2018-12-21T16:21:40.140Z,99770.11
2018-12-21T16:24:08.506Z,99769.28
2018-12-21T16:26:36.959Z,99779.72
2018-12-21T16:29:05.325Z,99785.38
2018-12-21T16:31:33.644Z,99781.40
2018-12-21T16:34:01.993Z,99788.41
2018-12-21T16:36:30.396Z,99781.59
2018-12-21T16:38:58.732Z,99789.30
2018-12-21T16:41:27.087Z,99797.53
2018-12-21T16:43:55.416Z,99798.08
2018-12-21T16:46:23.799Z,99793.72
2018-12-21T16:48:52.552Z,99792.34
2018-12-21T16:51:20.918Z,99786.66
2018-12-21T16:53:49.286Z,99808.89
2018-12-21T16:56:17.812Z,99792.15
2018-12-21T16:58:46.231Z,99816.51
2018-12-21T17:01:14.592Z,99825.91
2018-12-21T17:03:42.980Z,99819.86
2018-12-21T17:06:11.315Z,99836.95
2018-12-21T17:08:39.655Z,99836.95
2018-12-21T17:11:08.093Z,99828.19
2018-12-21T17:13:36.443Z,99836.05
2018-12-21T17:16:04.856Z,99847.91
2018-12-21T17:18:33.271Z,99836.98
2018-12-21T17:21:01.623Z,99848.28
2018-12-21T17:23:30.047Z,99835.31
2018-12-21T17:25:58.411Z,99848.06
2018-12-21T17:28:26.763Z,99865.00
2018-12-21T17:30:55.086Z,99838.25
2018-12-21T17:33:23.491Z,99863.95
2018-12-21T17:35:51.845Z,99861.40
2018-12-21T17:38:20.176Z,99863.08
2018-12-21T17:40:48.530Z,99858.37
2018-12-21T17:43:16.857Z,99870.45
2018-12-21T17:45:45.228Z,99881.81
2018-12-21T17:48:13.600Z,99876.89
2018-12-21T17:50:41.983Z,99904.59
2018-12-21T17:53:10.451Z,99889.30
2018-12-21T17:55:39.177Z,99895.41
2018-12-21T17:58:08.517Z,99895.57
2018-12-21T18:00:36.851Z,99904.52
2018-12-21T18:03:05.740Z,99905.87
2018-12-21T18:05:34.055Z,99914.66
2018-12-21T18:08:02.734Z,99909.85
2018-12-21T18:10:31.215Z,99918.47
2018-12-21T18:12:59.612Z,99915.86
2018-12-21T18:15:27.974Z,99924.70
2018-12-21T18:17:56.339Z,99936.83
2018-12-21T18:20:24.874Z,99933.40
2018-12-21T18:22:53.654Z,99940.30
2018-12-21T18:25:22.020Z,99943.28
2018-12-21T18:27:50.369Z,99944.95
2018-12-21T18:30:20.620Z,99949.67
2018-12-21T18:32:48.976Z,99939.37
2018-12-21T18:35:19.460Z,99945.42
2018-12-21T18:37:49.149Z,99943.81
2018-12-21T18:40:17.521Z,99986.72
2018-12-21T18:42:45.935Z,99960.63
2018-12-21T18:45:15.266Z,99963.19
2018-12-21T18:47:43.676Z,99975.02
2018-12-21T18:50:12.264Z,99967.12
2018-12-21T18:52:40.603Z,99982.36
2018-12-21T18:55:13.618Z,99971.06
2018-12-21T18:57:42.062Z,99992.41
2018-12-21T19:00:13.752Z,99995.40
2018-12-21T19:02:42.322Z,99973.27
2018-12-21T19:05:10.673Z,99999.72
2018-12-21T19:07:39.057Z,99996.69
2018-12-21T19:10:08.253Z,100005.35
2018-12-21T19:12:37.234Z,100007.49
2018-12-21T19:15:06.619Z,100012.25
2018-12-21T19:17:34.960Z,100031.40
2018-12-21T19:20:05.987Z,100021.06
2018-12-21T19:22:34.603Z,100012.00
2018-12-21T19:25:03.058Z,100021.93
2018-12-21T19:27:31.408Z,100018.86
2018-12-21T19:29:59.755Z,100016.67
2018-12-21T19:32:28.340Z,100025.85
2018-12-21T19:34:56.860Z,100028.90
2018-12-21T19:37:25.283Z,100037.11
2018-12-21T19:39:53.941Z,100047.55
2018-12-21T19:42:22.284Z,100048.90
2018-12-21T19:44:50.641Z,100060.16
2018-12-21T19:47:19.008Z,100041.91
2018-12-21T19:49:47.338Z,100052.36
2018-12-21T19:52:15.724Z,100057.58
2018-12-21T19:54:44.221Z,100060.19
2018-12-21T19:57:12.675Z,100065.86
2018-12-21T19:59:41.271Z,100062.83
2018-12-21T20:02:09.702Z,100066.77
2018-12-21T20:04:38.090Z,100060.33
2018-12-21T20:07:06.541Z,100056.05
2018-12-21T20:09:34.886Z,100062.98
2018-12-21T20:12:04.180Z,100077.75
2018-12-21T20:14:32.503Z,100078.15
2018-12-21T20:17:00.901Z,100090.33
2018-12-21T20:19:29.386Z,100087.31
2018-12-21T20:21:57.738Z,100086.01
2018-12-21T20:24:26.134Z,100089.89
2018-12-21T20:26:54.723Z,100098.13
2018-12-21T20:29:23.189Z,100087.73
2018-12-21T20:31:51.564Z,100088.16
2018-12-21T20:34:19.928Z,100089.05
2018-12-21T20:36:48.315Z,100092.05
2018-12-21T20:39:16.998Z,100090.33
2018-12-21T20:41:45.390Z,100094.66
2018-12-21T20:44:13.841Z,100085.95
2018-12-21T20:46:42.171Z,100105.50
2018-12-21T20:49:10.512Z,100109.86
2018-12-21T20:51:39.114Z,100104.64
2018-12-21T20:54:07.452Z,100121.56
2018-12-21T20:56:35.830Z,100119.40
2018-12-21T20:59:04.494Z,100120.28
2018-12-21T21:01:32.955Z,100128.97
2018-12-21T21:04:01.344Z,100122.04
2018-12-21T21:06:29.836Z,100125.48
2018-12-21T21:08:58.417Z,100125.50
2018-12-21T21:11:26.844Z,100132.44
2018-12-21T21:13:55.308Z,100119.41
2018-12-21T21:16:23.872Z,100129.39
2018-12-21T21:18:52.247Z,100130.27
2018-12-21T21:21:21.491Z,100127.69
2018-12-21T21:23:49.950Z,100136.80
2018-12-21T21:26:18.336Z,100123.80
2018-12-21T21:28:46.731Z,100129.41
2018-12-21T21:31:15.348Z,100138.98
2018-12-21T21:33:43.830Z,100140.27
2018-12-21T21:36:12.208Z,100146.78
2018-12-21T21:38:40.661Z,100161.97
2018-12-21T21:41:09.248Z,100155.01
2018-12-21T21:43:37.641Z,100160.68
2018-12-21T21:46:06.000Z,100159.37
2018-12-21T21:48:34.735Z,100161.98
2018-12-21T21:51:03.076Z,100158.49
2018-12-21T21:53:31.424Z,100158.92
2018-12-21T21:55:59.874Z,100161.98
2018-12-21T21:58:28.257Z,100167.61
2018-12-21T22:00:56.624Z,100179.33
2018-12-21T22:03:24.975Z,100181.06
2018-12-21T22:05:53.329Z,100182.37
2018-12-21T22:08:21.693Z,100177.60
2018-12-21T22:10:50.052Z,100187.56
2018-12-21T22:13:18.396Z,100185.39
2018-12-21T22:15:46.803Z,100194.52
2018-12-21T22:18:15.200Z,100186.26
2018-12-21T22:20:43.572Z,100189.75
2018-12-21T22:23:12.065Z,100187.58
2018-12-21T22:25:40.515Z,100179.75
2018-12-21T22:28:08.864Z,100183.23
2018-12-21T22:30:37.254Z,100188.01
2018-12-21T22:33:05.646Z,100193.65
2018-12-21T22:35:34.485Z,100190.63
2018-12-21T22:38:02.908Z,100198.84
2018-12-21T22:40:31.251Z,100197.55
2018-12-21T22:42:59.701Z,100193.22
2018-12-21T22:45:28.083Z,100192.36
2018-12-21T22:47:56.440Z,100190.58
2018-12-21T22:50:25.113Z,100201.88
2018-12-21T22:52:53.575Z,100197.55
2018-12-21T22:55:21.940Z,100207.96
2018-12-21T22:57:56.487Z,100202.75
2018-12-21T23:00:22.601Z,100214.45
2018-12-21T23:02:50.952Z,100215.75
2018-12-21T23:05:19.326Z,100210.13
2018-12-21T23:07:47.777Z,100211.44
2018-12-21T23:10:16.127Z,100207.07
2018-12-21T23:12:44.489Z,100201.42
2018-12-21T23:15:12.866Z,100204.47
2018-12-21T23:17:41.245Z,100210.58
2018-12-21T23:20:09.656Z,100205.80
2018-12-21T23:22:38.206Z,100208.39
2018-12-21T23:25:06.862Z,100209.23
2018-12-21T23:27:35.290Z,100210.54
2018-12-21T23:30:05.099Z,100200.56
2018-12-21T23:32:33.457Z,100203.61
2018-12-21T23:35:01.911Z,100197.53
2018-12-21T23:37:30.268Z,100197.53
2018-12-21T23:39:58.606Z,100194.95
2018-12-21T23:42:27.038Z,100193.21
2018-12-21T23:44:55.404Z,100183.22
2018-12-21T23:47:23.808Z,100186.68
2018-12-21T23:49:52.213Z,100187.58
2018-12-21T23:52:20.619Z,100198.84
2018-12-21T23:54:48.944Z,100187.55
2018-12-21T23:57:17.279Z,100189.28
2018-12-21T23:59:45.617Z,100194.08
